Time;durP1;ratioP1;P1;durP2;ratioP2;P2;SDS_P1;SDS_P2;PMS_P1;PMS_P2;Temp;Humidity;BMP_temperature;BMP_pressure;BME280_temperature;BME280_humidity;BME280_pressure;Samples;Min_cycle;Max_cycle;Signal;HPM_P1;HPM_P2
2021/09/01 00:01:21;;;;;;;2.15;2.05;;;12.20;99.90;;;;;;6233131;22;20355;-89
2021/09/01 00:04:07;;;;;;;2.08;1.98;;;12.20;99.90;;;;;;6139765;22;20414;-88
2021/09/01 00:06:53;;;;;;;2.00;1.90;;;12.10;99.90;;;;;;6156354;22;20335;-89
2021/09/01 00:09:39;;;;;;;2.30;2.10;;;12.10;99.90;;;;;;6165537;23;20365;-91
2021/09/01 00:12:27;;;;;;;2.20;2.00;;;12.20;99.90;;;;;;6183892;23;20357;-88
2021/09/01 00:15:14;;;;;;;1.85;1.75;;;12.10;99.90;;;;;;6126666;23;20404;-89
2021/09/01 00:18:00;;;;;;;2.20;2.08;;;12.00;99.90;;;;;;6146160;23;20369;-89
2021/09/01 00:20:46;;;;;;;2.17;1.92;;;12.00;99.90;;;;;;6125303;23;20373;-87
2021/09/01 00:23:32;;;;;;;2.63;1.88;;;12.00;99.90;;;;;;6123797;23;20387;-86
2021/09/01 00:26:19;;;;;;;2.45;2.25;;;11.90;99.90;;;;;;6144896;23;20348;-89
2021/09/01 00:29:05;;;;;;;2.25;2.08;;;11.80;99.90;;;;;;6151415;23;20353;-88
2021/09/01 00:31:51;;;;;;;2.83;2.58;;;11.90;99.90;;;;;;6163148;23;20372;-88
2021/09/01 00:34:38;;;;;;;4.15;3.75;;;11.90;99.90;;;;;;6123548;23;20373;-87
2021/09/01 00:37:24;;;;;;;4.28;3.10;;;11.80;99.90;;;;;;6164791;23;20350;-88
2021/09/01 00:40:11;;;;;;;2.42;2.22;;;11.90;99.90;;;;;;6127205;23;20365;-88
2021/09/01 00:45:53;;;;;;;3.10;2.80;;;11.90;99.90;;;;;;6232173;22;20387;-87
2021/09/01 00:48:39;;;;;;;2.35;2.15;;;11.80;99.90;;;;;;6133066;23;20377;-89
2021/09/01 00:51:25;;;;;;;2.37;2.17;;;11.90;99.90;;;;;;6141799;23;20353;-89
2021/09/01 00:54:12;;;;;;;2.70;2.13;;;11.80;99.90;;;;;;6144341;23;20373;-87
2021/09/01 00:57:04;;;;;;;2.15;1.95;;;11.80;99.90;;;;;;6145906;23;20353;-88
2021/09/01 00:59:50;;;;;;;2.70;2.50;;;11.80;99.90;;;;;;6123982;23;20350;-88
2021/09/01 01:02:36;;;;;;;2.53;2.30;;;11.70;99.90;;;;;;6144206;23;20565;-89
2021/09/01 01:05:22;;;;;;;2.30;2.10;;;11.70;99.90;;;;;;6122991;23;20376;-89
2021/09/01 01:08:08;;;;;;;2.95;2.22;;;11.60;99.90;;;;;;6125145;23;20401;-87
2021/09/01 01:10:54;;;;;;;2.45;2.25;;;11.60;99.90;;;;;;6145441;23;20344;-88
2021/09/01 01:13:45;;;;;;;2.57;2.20;;;11.50;99.90;;;;;;6145118;23;20369;-88
2021/09/01 01:16:30;;;;;;;2.28;2.08;;;11.50;99.90;;;;;;6142756;23;20561;-88
2021/09/01 01:19:17;;;;;;;2.90;2.15;;;11.60;99.90;;;;;;6142735;23;20365;-89
2021/09/01 01:22:03;;;;;;;2.55;2.35;;;11.50;99.90;;;;;;6143435;23;20360;-87
2021/09/01 01:25:03;;;;;;;3.65;2.65;;;11.40;99.90;;;;;;6143658;23;20365;-89
2021/09/01 01:27:49;;;;;;;2.85;2.40;;;11.50;99.90;;;;;;6145375;23;20372;-88
2021/09/01 01:30:35;;;;;;;2.25;2.15;;;11.30;99.90;;;;;;6162818;23;20360;-89
2021/09/01 01:33:21;;;;;;;2.70;2.03;;;11.40;99.90;;;;;;6141176;23;20364;-88
2021/09/01 01:36:07;;;;;;;2.53;2.33;;;11.40;99.90;;;;;;6143814;23;20353;-88
2021/09/01 01:38:53;;;;;;;2.92;2.17;;;11.40;99.90;;;;;;6143465;23;20413;-88
2021/09/01 01:41:39;;;;;;;2.50;2.30;;;11.40;99.90;;;;;;6163761;23;20377;-88
2021/09/01 01:44:25;;;;;;;2.80;2.60;;;11.30;99.90;;;;;;6142003;23;20391;-87
2021/09/01 01:47:11;;;;;;;2.45;2.25;;;11.30;99.90;;;;;;6144876;23;20368;-87
2021/09/01 01:49:57;;;;;;;3.17;2.40;;;11.10;99.90;;;;;;6142259;23;20417;-88
2021/09/01 01:52:43;;;;;;;2.78;2.40;;;11.30;99.90;;;;;;6145057;23;20369;-89
2021/09/01 01:55:29;;;;;;;2.35;2.15;;;11.30;99.90;;;;;;6141310;23;20373;-88
2021/09/01 01:58:15;;;;;;;3.03;2.53;;;11.30;99.90;;;;;;6142533;23;20360;-88
2021/09/01 02:01:01;;;;;;;2.00;1.90;;;11.30;99.90;;;;;;6142759;23;20353;-88
2021/09/01 02:03:47;;;;;;;2.37;2.17;;;11.30;99.90;;;;;;6143088;23;20385;-88
2021/09/01 02:06:33;;;;;;;2.20;2.10;;;11.20;99.90;;;;;;6141623;23;20350;-87
2021/09/01 02:09:19;;;;;;;3.53;2.50;;;11.20;99.90;;;;;;6142378;23;20357;-87
2021/09/01 02:12:05;;;;;;;2.53;2.33;;;11.20;99.90;;;;;;6142773;23;20380;-89
2021/09/01 02:14:51;;;;;;;2.95;2.65;;;11.20;99.90;;;;;;6122645;23;20373;-87
2021/09/01 02:17:38;;;;;;;2.30;2.10;;;11.20;99.90;;;;;;6141891;23;20411;-87
2021/09/01 02:20:24;;;;;;;2.55;2.35;;;11.20;99.90;;;;;;6141443;23;20411;-89
2021/09/01 02:26:19;;;;;;;2.85;2.50;;;11.20;99.90;;;;;;6235294;22;20399;-87
2021/09/01 02:29:05;;;;;;;3.05;2.60;;;11.20;99.90;;;;;;6125996;23;20349;-89
2021/09/01 02:31:51;;;;;;;3.08;2.72;;;11.10;99.90;;;;;;6121287;23;20352;-89
2021/09/01 02:34:37;;;;;;;3.20;2.90;;;11.10;99.90;;;;;;6141254;23;20385;-88
2021/09/01 02:37:23;;;;;;;2.88;2.67;;;11.10;99.90;;;;;;6140737;23;20353;-88
2021/09/01 02:40:09;;;;;;;3.13;2.67;;;11.20;99.90;;;;;;6138306;23;20400;-87
2021/09/01 02:42:55;;;;;;;3.92;2.60;;;11.20;99.90;;;;;;6142877;23;20353;-87
2021/09/01 02:45:43;;;;;;;2.85;2.47;;;11.10;99.90;;;;;;6143203;23;20377;-87
2021/09/01 02:48:29;;;;;;;2.85;2.58;;;11.20;99.90;;;;;;6140468;23;20375;-87
2021/09/01 02:51:15;;;;;;;2.80;2.47;;;11.20;99.90;;;;;;6142950;23;20345;-90
2021/09/01 02:54:02;;;;;;;3.10;2.80;;;11.30;99.90;;;;;;6142387;23;20456;-90
2021/09/01 02:56:48;;;;;;;2.70;2.50;;;11.30;99.90;;;;;;6163101;23;20369;-89
2021/09/01 02:59:34;;;;;;;3.00;2.65;;;11.30;99.90;;;;;;6144290;23;20349;-87
2021/09/01 03:02:20;;;;;;;2.97;2.55;;;11.30;99.90;;;;;;6142329;23;20381;-89
2021/09/01 03:05:06;;;;;;;3.10;2.80;;;11.40;99.90;;;;;;6141049;23;20353;-88
2021/09/01 03:07:52;;;;;;;2.95;2.30;;;11.30;99.90;;;;;;6159172;23;20495;-88
2021/09/01 03:10:38;;;;;;;3.13;2.80;;;11.30;99.90;;;;;;6141031;23;20352;-87
2021/09/01 03:13:24;;;;;;;2.90;2.70;;;11.30;99.90;;;;;;6140989;23;20387;-88
2021/09/01 03:16:10;;;;;;;3.17;2.90;;;11.30;99.90;;;;;;6141922;23;20377;-88
2021/09/01 03:18:56;;;;;;;2.80;2.57;;;11.30;99.90;;;;;;6143367;23;20373;-88
2021/09/01 03:21:42;;;;;;;3.05;2.75;;;11.30;99.90;;;;;;6145969;23;20353;-88
2021/09/01 03:24:28;;;;;;;3.47;2.80;;;11.30;99.90;;;;;;6164499;23;20457;-89
2021/09/01 03:27:14;;;;;;;3.47;3.03;;;11.20;99.90;;;;;;6139916;23;20360;-88
2021/09/01 03:30:00;;;;;;;3.03;2.83;;;11.20;99.90;;;;;;6142027;23;20353;-89
2021/09/01 03:32:46;;;;;;;4.07;3.07;;;11.20;99.90;;;;;;6143348;23;20349;-88
2021/09/01 03:35:32;;;;;;;2.92;2.70;;;11.20;99.90;;;;;;6142523;23;20369;-87
2021/09/01 03:38:18;;;;;;;2.70;2.47;;;11.30;99.90;;;;;;6141020;23;20357;-90
2021/09/01 03:41:04;;;;;;;2.80;2.60;;;11.30;99.90;;;;;;6143285;23;20341;-88
2021/09/01 03:43:54;;;;;;;3.75;2.53;;;11.30;99.90;;;;;;6143514;23;20356;-86
2021/09/01 03:46:41;;;;;;;2.75;2.50;;;11.20;99.90;;;;;;6146084;23;20384;-89
2021/09/01 03:49:28;;;;;;;2.65;2.45;;;11.40;99.90;;;;;;6142346;23;20342;-89
2021/09/01 03:52:14;;;;;;;3.00;2.70;;;11.40;99.90;;;;;;6145581;23;20357;-88
2021/09/01 03:55:01;;;;;;;2.53;2.33;;;11.40;99.90;;;;;;6141529;23;20396;-88
2021/09/01 03:57:48;;;;;;;3.03;2.83;;;11.40;99.90;;;;;;6163610;23;20361;-89
2021/09/01 04:00:34;;;;;;;4.47;2.55;;;11.40;99.90;;;;;;6120730;23;20345;-88
2021/09/01 04:03:20;;;;;;;2.50;2.30;;;11.40;99.90;;;;;;6141414;23;20369;-90
2021/09/01 04:06:06;;;;;;;2.60;2.40;;;11.50;99.90;;;;;;6143030;23;20377;-87
2021/09/01 04:08:52;;;;;;;2.40;2.20;;;11.50;99.90;;;;;;6142141;23;20389;-88
2021/09/01 04:23:43;;;;;;;2.60;2.33;;;11.40;99.90;;;;;;6228880;22;20375;-86
2021/09/01 04:29:25;;;;;;;2.88;2.67;;;11.30;99.90;;;;;;6204784;23;20360;-90
2021/09/01 04:32:12;;;;;;;2.67;2.47;;;11.30;99.90;;;;;;6164207;23;20342;-89
2021/09/01 04:35:02;;;;;;;4.43;3.80;;;11.50;99.90;;;;;;6166368;23;20365;-89
2021/09/01 04:37:48;;;;;;;4.57;3.53;;;11.30;99.90;;;;;;6164992;23;20337;-84
2021/09/01 04:40:34;;;;;;;3.13;2.75;;;11.30;99.90;;;;;;6183839;23;20438;-86
2021/09/01 04:43:20;;;;;;;3.08;2.83;;;11.30;99.90;;;;;;6165444;23;20357;-84
2021/09/01 04:46:06;;;;;;;3.83;2.90;;;11.40;99.90;;;;;;6166062;23;20377;-90
2021/09/01 04:48:52;;;;;;;2.95;2.75;;;11.50;99.90;;;;;;6165231;23;20352;-88
2021/09/01 05:03:30;;;;;;;3.50;3.20;;;11.80;99.90;;;;;;6229671;22;20371;-88
2021/09/01 05:06:48;;;;;;;2.95;2.75;;;11.90;99.90;;;;;;6148513;22;21063;-88
2021/09/01 07:35:59;;;;;;;2.90;2.70;;;16.90;99.90;;;;;;6230193;22;20351;-91
2021/09/01 07:38:45;;;;;;;3.70;3.03;;;17.10;99.90;;;;;;6112486;23;20354;-90
2021/09/01 07:41:31;;;;;;;2.80;2.60;;;17.20;99.90;;;;;;6139612;23;20369;-90
2021/09/01 08:13:37;;;;;;;2.40;2.20;;;18.90;99.90;;;;;;6233796;22;20359;-92
2021/09/01 08:16:23;;;;;;;4.05;2.53;;;19.10;99.90;;;;;;6195767;23;20378;-90
2021/09/01 08:19:09;;;;;;;2.58;2.30;;;19.30;99.90;;;;;;6131529;23;20348;-92
2021/09/01 08:21:55;;;;;;;2.75;2.55;;;19.40;99.90;;;;;;6127115;23;20352;-91
2021/09/01 08:24:43;;;;;;;2.95;2.65;;;19.40;99.90;;;;;;6147318;23;20343;-90
2021/09/01 08:27:29;;;;;;;2.95;2.60;;;19.40;99.90;;;;;;6124191;23;20379;-91
2021/09/01 08:30:16;;;;;;;3.33;2.30;;;19.60;99.90;;;;;;6165174;23;20345;-90
2021/09/01 08:33:02;;;;;;;2.63;2.20;;;19.70;99.90;;;;;;6123560;23;20369;-91
2021/09/01 08:35:48;;;;;;;2.40;2.20;;;19.70;99.90;;;;;;6162962;23;20439;-90
2021/09/01 09:12:09;;;;;;;3.53;2.45;;;21.00;99.90;;;;;;6216237;22;20384;-92
2021/09/01 09:14:55;;;;;;;2.07;1.90;;;20.90;99.90;;;;;;6173667;22;20373;-93
2021/09/01 09:17:40;;;;;;;2.38;2.17;;;21.10;99.90;;;;;;6157562;22;20351;-92
2021/09/01 09:20:31;;;;;;;2.30;2.20;;;21.40;99.90;;;;;;6172251;22;20348;-92
2021/09/01 09:23:28;;;;;;;2.35;2.20;;;21.20;99.90;;;;;;6154483;22;20396;-91
2021/09/01 09:26:20;;;;;;;3.65;2.05;;;21.10;99.90;;;;;;6152785;22;20367;-92
2021/09/01 10:33:33;;;;;;;2.20;2.00;;;23.50;99.90;;;;;;6229585;22;20435;-92
2021/09/01 10:36:22;;;;;;;2.28;2.10;;;23.90;99.90;;;;;;6181778;23;20376;-92
2021/09/01 10:39:13;;;;;;;2.37;2.17;;;24.00;99.90;;;;;;6193465;23;20349;-91
2021/09/01 10:42:19;;;;;;;2.03;1.73;;;24.00;99.90;;;;;;6164519;23;20345;-91
2021/09/01 10:45:10;;;;;;;2.20;2.00;;;23.80;99.90;;;;;;6146568;23;20348;-92
2021/09/01 10:47:58;;;;;;;2.13;1.92;;;24.20;99.90;;;;;;6119506;23;20333;-92
2021/09/01 10:50:47;;;;;;;2.42;2.22;;;24.40;99.90;;;;;;6185505;23;20365;-91
2021/09/01 11:22:53;;;;;;;2.03;1.83;;;24.10;99.90;;;;;;6237552;22;20403;-91
2021/09/01 11:25:39;;;;;;;2.22;2.00;;;24.30;99.90;;;;;;6154028;23;20360;-91
2021/09/01 11:28:25;;;;;;;2.80;1.95;;;24.40;99.90;;;;;;6139431;23;20352;-91
2021/09/01 11:31:20;;;;;;;1.98;1.85;;;24.30;99.90;;;;;;6144116;23;20392;-91
2021/09/01 11:34:06;;;;;;;1.75;1.65;;;24.50;99.90;;;;;;6143400;23;20381;-90
2021/09/01 11:36:54;;;;;;;5.95;2.20;;;24.50;99.90;;;;;;6113288;23;20360;-91
2021/09/01 11:39:45;;;;;;;2.20;2.00;;;24.50;99.90;;;;;;6147044;23;20380;-92
2021/09/01 11:42:34;;;;;;;2.23;2.03;;;24.20;99.90;;;;;;6147892;23;20361;-91
2021/09/01 11:45:20;;;;;;;3.45;2.15;;;24.20;99.90;;;;;;6187076;23;20381;-92
2021/09/01 11:48:12;;;;;;;2.15;1.95;;;24.30;99.90;;;;;;6139978;23;20364;-91
2021/09/01 12:29:05;;;;;;;4.00;2.30;;;25.00;99.90;;;;;;6236857;22;20375;-92
2021/09/01 12:31:52;;;;;;;2.22;2.03;;;24.80;99.90;;;;;;6138206;22;20327;-90
2021/09/01 12:34:39;;;;;;;2.45;2.13;;;24.80;99.90;;;;;;6147085;22;20450;-91
2021/09/01 12:37:27;;;;;;;2.30;2.10;;;24.80;99.90;;;;;;6150432;23;20367;-92
2021/09/01 12:40:14;;;;;;;2.05;1.90;;;25.10;99.90;;;;;;6149431;23;20368;-93
2021/09/01 12:43:05;;;;;;;2.60;2.17;;;25.30;99.90;;;;;;6152525;22;20348;-92
2021/09/01 12:46:01;;;;;;;2.60;2.07;;;25.10;99.90;;;;;;6145817;23;20360;-92
2021/09/01 12:48:47;;;;;;;2.67;2.03;;;25.40;99.90;;;;;;6165079;23;20364;-92
2021/09/01 12:51:34;;;;;;;2.10;2.00;;;25.60;99.90;;;;;;6145812;23;20360;-91
2021/09/01 12:54:23;;;;;;;2.20;2.00;;;26.20;99.90;;;;;;6169227;23;20584;-92
2021/09/01 12:57:10;;;;;;;2.38;1.88;;;26.30;99.90;;;;;;6169796;23;20395;-91
2021/09/01 12:59:59;;;;;;;2.03;1.92;;;26.20;99.90;;;;;;6185882;23;20368;-90
2021/09/01 13:02:47;;;;;;;5.13;2.20;;;25.80;99.90;;;;;;6142376;23;20751;-91
2021/09/01 13:05:34;;;;;;;2.30;2.10;;;26.20;99.90;;;;;;6166842;23;20363;-92
2021/09/01 13:08:26;;;;;;;2.20;2.00;;;26.70;99.90;;;;;;6156785;23;20369;-91
2021/09/01 13:11:15;;;;;;;2.17;2.00;;;26.80;99.90;;;;;;6121345;23;20398;-92
2021/09/01 13:14:04;;;;;;;2.00;1.90;;;26.90;99.90;;;;;;6154082;23;20392;-91
2021/09/01 13:16:51;;;;;;;2.30;2.05;;;26.60;99.90;;;;;;6131456;23;20365;-92
2021/09/01 13:19:38;;;;;;;1.98;1.88;;;26.10;99.90;;;;;;6131765;23;20465;-92
2021/09/01 13:22:25;;;;;;;1.83;1.73;;;26.20;99.90;;;;;;6112032;23;20372;-90
2021/09/01 13:25:12;;;;;;;2.15;1.92;;;25.90;99.90;;;;;;6132347;23;20373;-89
2021/09/01 13:27:59;;;;;;;2.10;2.00;;;25.80;99.90;;;;;;6132293;23;20380;-92
2021/09/01 13:30:45;;;;;;;2.23;2.03;;;25.60;99.90;;;;;;6114949;23;20376;-93
2021/09/01 13:33:31;;;;;;;2.42;2.22;;;25.10;99.90;;;;;;6111129;23;20369;-89
2021/09/01 13:36:17;;;;;;;2.13;2.00;;;25.40;99.90;;;;;;6130868;23;20377;-91
2021/09/01 13:39:04;;;;;;;2.20;1.98;;;25.80;99.90;;;;;;6133340;23;20362;-91
2021/09/01 13:41:51;;;;;;;1.80;1.70;;;25.80;99.90;;;;;;6116155;23;21034;-91
2021/09/01 13:44:37;;;;;;;3.70;2.33;;;25.60;99.90;;;;;;6113350;23;20392;-90
2021/09/01 13:47:23;;;;;;;3.22;2.63;;;25.30;99.90;;;;;;6133766;23;20361;-90
2021/09/01 13:50:09;;;;;;;2.75;2.13;;;25.10;99.90;;;;;;6113768;23;20838;-93
2021/09/01 13:52:55;;;;;;;2.85;2.17;;;24.90;99.90;;;;;;6135483;23;20346;-93
2021/09/01 13:55:42;;;;;;;2.33;2.13;;;25.20;99.90;;;;;;6119799;23;20546;-92
2021/09/01 13:58:28;;;;;;;2.53;2.33;;;25.90;99.90;;;;;;6116880;23;20349;-91
2021/09/01 14:01:14;;;;;;;2.57;2.30;;;26.20;99.90;;;;;;6138592;23;20354;-90
2021/09/01 14:04:02;;;;;;;2.47;2.10;;;26.70;99.90;;;;;;6157129;23;20371;-91
2021/09/01 14:06:51;;;;;;;4.85;2.70;;;26.90;99.90;;;;;;6159507;23;20762;-91
2021/09/01 14:09:38;;;;;;;2.53;2.33;;;26.60;99.90;;;;;;6138335;23;20429;-91
2021/09/01 14:12:24;;;;;;;2.40;2.20;;;26.50;99.90;;;;;;6116524;23;20361;-92
2021/09/01 14:15:14;;;;;;;2.40;2.20;;;26.50;99.90;;;;;;6119903;23;20382;-90
2021/09/01 14:18:03;;;;;;;2.63;2.42;;;26.90;99.90;;;;;;6137590;23;20424;-92
2021/09/01 14:20:51;;;;;;;2.60;2.40;;;26.80;99.90;;;;;;6117968;23;20362;-89
2021/09/01 14:23:38;;;;;;;2.63;2.42;;;26.50;99.90;;;;;;6117427;23;20357;-92
2021/09/01 14:26:25;;;;;;;4.43;2.10;;;26.50;99.90;;;;;;6140743;23;20357;-90
2021/09/01 14:29:12;;;;;;;3.15;2.72;;;26.50;99.90;;;;;;6156301;23;20357;-92
2021/09/01 14:31:58;;;;;;;2.90;2.43;;;26.50;99.90;;;;;;6136107;23;20361;-91
2021/09/01 14:34:45;;;;;;;4.53;2.50;;;26.50;99.90;;;;;;6115890;23;20358;-92
2021/09/01 14:37:32;;;;;;;1.92;1.83;;;26.50;99.90;;;;;;6116411;23;20396;-91
2021/09/01 14:40:21;;;;;;;2.78;2.35;;;26.50;99.90;;;;;;6157650;23;20917;-89
2021/09/01 14:43:07;;;;;;;2.08;1.98;;;26.70;99.90;;;;;;6121865;23;20338;-91
2021/09/01 14:45:54;;;;;;;2.70;2.50;;;26.90;99.90;;;;;;6123666;23;20349;-91
2021/09/01 14:48:41;;;;;;;2.05;1.95;;;26.60;99.90;;;;;;6120366;23;20365;-90
2021/09/01 14:51:27;;;;;;;2.63;2.42;;;26.20;99.90;;;;;;6119960;23;20365;-93
2021/09/01 14:54:14;;;;;;;6.45;2.42;;;26.00;99.90;;;;;;6119182;23;20353;-91
2021/09/01 14:57:01;;;;;;;2.28;2.17;;;25.50;99.90;;;;;;6137333;23;20369;-92
2021/09/01 14:59:47;;;;;;;3.10;2.70;;;25.40;99.90;;;;;;6116844;23;20368;-93
2021/09/01 15:02:33;;;;;;;3.55;2.75;;;25.10;99.90;;;;;;6116146;23;20360;-93
2021/09/01 15:05:20;;;;;;;2.63;2.42;;;24.90;99.90;;;;;;6116193;23;20374;-93
2021/09/01 15:08:06;;;;;;;2.60;2.38;;;24.70;99.90;;;;;;6115420;23;20365;-92
2021/09/01 15:10:52;;;;;;;2.08;1.98;;;24.80;99.90;;;;;;6136485;23;20420;-92
2021/09/01 15:13:38;;;;;;;4.25;2.90;;;24.70;99.90;;;;;;6137918;23;20353;-90
2021/09/01 15:16:25;;;;;;;2.50;2.33;;;24.40;99.90;;;;;;6136820;23;20369;-92
2021/09/01 15:19:10;;;;;;;2.22;2.08;;;24.10;99.90;;;;;;6135832;23;20368;-92
2021/09/01 15:21:56;;;;;;;2.20;2.00;;;24.00;99.90;;;;;;6111385;23;20404;-89
2021/09/01 15:24:44;;;;;;;2.75;2.42;;;23.90;99.90;;;;;;6130831;23;20370;-88
2021/09/01 15:27:31;;;;;;;4.13;2.50;;;23.70;99.90;;;;;;6115497;23;20361;-85
2021/09/01 15:30:18;;;;;;;3.17;2.20;;;23.50;99.90;;;;;;6135570;23;20381;-87
2021/09/01 15:33:04;;;;;;;2.40;2.20;;;23.50;99.90;;;;;;6136933;23;20376;-90
2021/09/01 15:35:53;;;;;;;2.00;1.90;;;23.40;99.90;;;;;;6132754;23;20373;-88
2021/09/01 15:38:40;;;;;;;2.57;2.20;;;23.30;99.90;;;;;;6116463;23;20361;-89
2021/09/01 15:41:26;;;;;;;2.00;1.90;;;23.30;99.90;;;;;;6134595;23;20357;-82
2021/09/01 15:44:16;;;;;;;2.00;1.90;;;23.30;99.90;;;;;;6115958;23;20639;-88
2021/09/01 15:47:03;;;;;;;2.50;2.30;;;23.30;99.90;;;;;;6154179;23;20361;-89
2021/09/01 15:49:50;;;;;;;2.58;2.38;;;23.10;99.90;;;;;;6116298;23;20368;-87
2021/09/01 15:52:37;;;;;;;2.92;2.58;;;22.70;99.90;;;;;;6157314;23;20795;-91
2021/09/01 15:55:23;;;;;;;2.40;2.20;;;22.70;99.90;;;;;;6118104;23;20365;-88
2021/09/01 15:58:11;;;;;;;3.03;2.60;;;22.60;99.90;;;;;;6130757;23;20365;-91
2021/09/01 16:00:57;;;;;;;2.05;1.95;;;22.60;99.90;;;;;;6118231;23;20372;-87
2021/09/01 16:03:44;;;;;;;2.75;2.55;;;22.60;99.90;;;;;;6133635;23;20396;-86
2021/09/01 16:06:33;;;;;;;2.42;2.20;;;22.50;99.90;;;;;;6136620;23;20413;-89
2021/09/01 16:09:19;;;;;;;2.50;2.30;;;22.50;99.90;;;;;;6154932;23;20370;-87
2021/09/01 16:12:07;;;;;;;2.08;1.98;;;21.90;99.90;;;;;;6133581;23;20369;-86
2021/09/01 16:15:00;;;;;;;2.30;2.20;;;21.80;99.90;;;;;;6114934;23;20406;-84
2021/09/01 16:18:12;;;;;;;3.13;2.47;;;21.90;99.90;;;;;;6137957;23;20380;-88
2021/09/01 16:20:59;;;;;;;2.13;1.93;;;21.70;99.90;;;;;;6156373;23;20369;-87
2021/09/01 16:23:49;;;;;;;3.10;2.10;;;21.60;99.90;;;;;;6134656;23;20365;-84
2021/09/01 16:26:38;;;;;;;2.70;2.50;;;21.60;99.90;;;;;;6117398;23;20365;-91
2021/09/01 16:29:26;;;;;;;2.47;2.28;;;21.30;99.90;;;;;;6112830;23;20376;-87
2021/09/01 16:32:13;;;;;;;4.47;2.88;;;21.50;99.90;;;;;;6116985;23;20421;-88
2021/09/01 16:34:59;;;;;;;2.50;2.03;;;21.20;99.90;;;;;;6110479;23;20373;-86
2021/09/01 16:40:47;;;;;;;2.70;2.47;;;21.20;99.90;;;;;;6136970;23;20365;-91
2021/09/01 16:43:35;;;;;;;2.75;2.53;;;21.10;99.90;;;;;;6132349;23;20362;-87
2021/09/01 16:46:24;;;;;;;4.73;2.43;;;21.10;99.90;;;;;;6114275;23;20388;-91
2021/09/01 16:49:10;;;;;;;2.88;2.58;;;21.00;99.90;;;;;;6131563;23;20362;-90
2021/09/01 16:51:59;;;;;;;2.70;2.42;;;20.90;99.90;;;;;;6112467;23;20378;-88
2021/09/01 16:54:52;;;;;;;2.47;2.28;;;20.80;99.90;;;;;;6131718;23;20381;-91
2021/09/01 16:57:50;;;;;;;2.47;2.20;;;20.90;99.90;;;;;;6130653;23;20370;-89
2021/09/01 17:00:37;;;;;;;2.60;2.40;;;20.70;99.90;;;;;;6170937;23;20366;-89
2021/09/01 17:03:25;;;;;;;2.08;1.98;;;20.70;99.90;;;;;;6172902;23;20420;-88
2021/09/01 17:06:11;;;;;;;2.90;2.35;;;20.60;99.90;;;;;;6154062;23;20400;-91
2021/09/01 17:08:59;;;;;;;2.70;2.50;;;20.60;99.90;;;;;;6156115;23;20444;-91
2021/09/01 17:11:45;;;;;;;3.83;2.47;;;20.50;99.90;;;;;;6154841;23;20423;-86
2021/09/01 17:14:31;;;;;;;2.60;2.15;;;20.40;99.90;;;;;;6154045;23;20377;-87
2021/09/01 17:17:17;;;;;;;2.33;2.17;;;20.30;99.90;;;;;;6153727;23;20368;-90
2021/09/01 17:20:04;;;;;;;2.45;2.25;;;20.30;99.90;;;;;;6155581;23;20380;-84
2021/09/01 17:22:51;;;;;;;2.35;2.20;;;20.20;99.90;;;;;;6152256;23;20369;-86
2021/09/01 17:25:40;;;;;;;2.95;2.65;;;20.00;99.90;;;;;;6151865;23;20377;-87
2021/09/01 17:28:30;;;;;;;2.75;2.55;;;19.90;99.90;;;;;;6152989;23;20403;-91
2021/09/01 17:31:16;;;;;;;2.75;2.20;;;19.80;99.90;;;;;;6156412;23;20400;-88
2021/09/01 17:34:03;;;;;;;2.40;2.20;;;19.70;99.90;;;;;;6170633;23;20413;-86
2021/09/01 17:36:49;;;;;;;2.58;1.95;;;19.60;99.90;;;;;;6154326;23;20439;-89
2021/09/01 17:39:35;;;;;;;2.05;1.92;;;19.60;99.90;;;;;;6150735;23;20388;-87
2021/09/01 17:42:21;;;;;;;3.33;2.42;;;19.50;99.90;;;;;;6129430;23;20879;-89
2021/09/01 17:45:08;;;;;;;3.90;2.45;;;19.40;99.90;;;;;;6144601;23;20369;-86
2021/09/01 17:47:54;;;;;;;2.83;2.17;;;19.30;99.90;;;;;;6151967;23;20383;-88
2021/09/01 17:50:42;;;;;;;2.55;2.35;;;19.20;99.90;;;;;;6152993;23;20384;-88
2021/09/01 17:53:28;;;;;;;2.60;2.40;;;19.20;99.90;;;;;;6152440;23;20392;-89
2021/09/01 17:56:17;;;;;;;2.43;2.23;;;19.10;99.90;;;;;;6156938;23;20376;-87
2021/09/01 17:59:18;;;;;;;2.72;2.50;;;19.00;99.90;;;;;;6177454;23;20381;-84
2021/09/01 18:02:05;;;;;;;3.00;2.40;;;18.90;99.90;;;;;;6174585;23;20846;-89
2021/09/01 18:04:52;;;;;;;2.50;2.30;;;18.80;99.90;;;;;;6155463;23;20364;-89
2021/09/01 18:07:38;;;;;;;2.00;1.90;;;18.70;99.90;;;;;;6172651;23;20842;-90
2021/09/01 18:10:24;;;;;;;2.00;1.90;;;18.80;99.90;;;;;;6132069;23;20370;-89
2021/09/01 18:13:10;;;;;;;2.95;2.28;;;18.50;99.90;;;;;;6145573;23;20366;-91
2021/09/01 18:15:58;;;;;;;1.90;1.80;;;18.50;99.90;;;;;;6156911;23;20365;-89
2021/09/01 18:18:45;;;;;;;2.70;2.15;;;18.50;99.90;;;;;;6137762;23;20362;-87
2021/09/01 18:21:31;;;;;;;2.10;1.90;;;18.30;99.90;;;;;;6098260;23;20375;-90
2021/09/01 18:24:18;;;;;;;2.20;2.00;;;18.20;99.90;;;;;;6173630;23;20397;-90
2021/09/01 18:27:05;;;;;;;3.60;2.17;;;18.20;99.90;;;;;;6110478;23;20398;-87
2021/09/01 18:29:53;;;;;;;2.33;2.00;;;18.10;99.90;;;;;;6134829;23;20384;-86
2021/09/01 18:32:45;;;;;;;2.00;1.85;;;18.00;99.90;;;;;;6158427;23;20361;-86
2021/09/01 18:35:33;;;;;;;2.15;2.00;;;17.90;99.90;;;;;;6177361;23;20380;-90
2021/09/01 18:38:19;;;;;;;1.92;1.83;;;17.80;99.90;;;;;;6147445;23;20365;-90
2021/09/01 18:41:08;;;;;;;2.03;1.92;;;17.80;99.90;;;;;;6154082;23;20365;-85
2021/09/01 18:44:12;;;;;;;2.35;2.10;;;17.70;99.90;;;;;;6160361;23;20371;-89
2021/09/01 18:46:59;;;;;;;2.40;2.20;;;17.60;99.90;;;;;;6152510;23;20396;-85
2021/09/01 18:49:46;;;;;;;2.33;2.13;;;17.50;99.90;;;;;;6145464;23;20361;-91
2021/09/01 18:52:33;;;;;;;2.58;2.38;;;17.40;99.90;;;;;;6038709;23;20893;-84
2021/09/01 18:55:23;;;;;;;2.42;2.22;;;17.20;99.90;;;;;;6102574;23;20375;-87
2021/09/01 18:58:09;;;;;;;2.17;2.08;;;17.30;99.90;;;;;;6143034;23;20374;-87
2021/09/01 19:01:01;;;;;;;2.28;2.08;;;17.20;99.90;;;;;;6104080;23;20367;-91
2021/09/01 19:03:56;;;;;;;2.88;2.58;;;17.20;99.90;;;;;;6102351;23;20406;-87
2021/09/01 19:06:46;;;;;;;2.10;1.90;;;17.20;99.90;;;;;;6103181;23;20434;-89
2021/09/01 19:09:56;;;;;;;1.92;1.83;;;17.00;99.90;;;;;;6101348;23;20553;-89
2021/09/01 19:24:56;;;;;;;2.20;2.00;;;16.80;99.90;;;;;;6143646;23;20439;-91
2021/09/01 19:27:44;;;;;;;2.47;2.28;;;16.70;99.90;;;;;;6085032;23;20356;-89
2021/09/01 19:30:30;;;;;;;2.17;2.05;;;16.70;99.90;;;;;;6100346;23;20365;-88
2021/09/01 19:33:16;;;;;;;2.28;2.10;;;16.70;99.90;;;;;;6109610;23;20424;-92
2021/09/01 19:36:38;;;;;;;2.67;2.20;;;16.60;99.90;;;;;;6083120;23;20472;-88
2021/09/01 19:47:05;;;;;;;2.60;2.40;;;16.30;99.90;;;;;;6108848;23;20550;-90
2021/09/01 19:50:34;;;;;;;2.17;1.92;;;16.30;99.90;;;;;;6126349;23;20431;-92
2021/09/01 19:53:20;;;;;;;5.70;2.05;;;16.20;99.90;;;;;;6096671;23;20561;-90
2021/09/01 19:56:34;;;;;;;2.03;1.90;;;16.20;99.90;;;;;;6038000;23;20365;-90
2021/09/01 19:59:41;;;;;;;1.93;1.83;;;16.20;99.90;;;;;;6059656;23;20369;-90
2021/09/01 20:03:34;;;;;;;2.50;2.30;;;16.10;99.90;;;;;;6100215;23;20380;-92
2021/09/01 20:25:50;;;;;;;2.03;1.85;;;15.70;99.90;;;;;;6120168;23;20461;-86
2021/09/01 20:29:51;;;;;;;2.25;2.05;;;15.60;99.90;;;;;;6033780;23;20396;-88
2021/09/01 20:33:09;;;;;;;2.45;2.25;;;15.60;99.90;;;;;;6107453;23;20382;-86
2021/09/01 20:36:22;;;;;;;2.28;2.13;;;15.40;99.90;;;;;;6084832;23;20398;-88
2021/09/01 20:39:10;;;;;;;2.13;2.03;;;15.40;99.90;;;;;;6063355;23;20378;-88
2021/09/01 20:45:47;;;;;;;2.20;2.00;;;15.30;99.90;;;;;;6059532;23;20385;-87
2021/09/01 20:49:09;;;;;;;2.20;2.00;;;15.20;99.90;;;;;;6083024;23;20395;-86
2021/09/01 20:52:09;;;;;;;2.10;2.00;;;15.20;99.90;;;;;;6060699;23;20374;-89
2021/09/01 20:54:59;;;;;;;2.35;2.15;;;15.20;99.90;;;;;;6056809;23;20449;-86
2021/09/01 20:57:53;;;;;;;2.00;1.90;;;15.20;99.90;;;;;;6069850;23;20378;-87
2021/09/01 21:00:48;;;;;;;2.00;1.90;;;15.20;99.90;;;;;;6042772;23;20366;-86
2021/09/01 21:03:39;;;;;;;1.95;1.85;;;15.20;99.90;;;;;;6060178;23;20465;-87
2021/09/01 21:06:34;;;;;;;2.20;2.00;;;15.10;99.90;;;;;;6060814;23;20360;-88
2021/09/01 21:09:24;;;;;;;2.15;1.95;;;15.10;99.90;;;;;;6091453;23;20381;-90
2021/09/01 21:12:13;;;;;;;2.17;2.08;;;14.90;99.90;;;;;;6056537;23;20389;-87
2021/09/01 21:15:05;;;;;;;2.20;2.00;;;14.90;99.90;;;;;;6031511;23;20380;-86
2021/09/01 21:18:02;;;;;;;3.13;2.83;;;14.90;99.90;;;;;;6066134;23;20372;-89
2021/09/01 21:21:47;;;;;;;2.55;2.35;;;14.90;99.90;;;;;;6020730;23;20376;-87
2021/09/01 21:24:58;;;;;;;2.50;2.30;;;14.90;99.90;;;;;;6100368;23;20386;-87
2021/09/01 21:27:48;;;;;;;2.65;2.10;;;14.90;99.90;;;;;;6083759;23;20755;-89
2021/09/01 21:30:36;;;;;;;2.58;2.38;;;14.90;99.90;;;;;;6037963;23;20433;-88
2021/09/01 21:33:23;;;;;;;2.33;2.13;;;14.80;99.90;;;;;;6107997;23;20374;-87
2021/09/01 21:36:12;;;;;;;2.25;2.05;;;14.90;99.90;;;;;;6067320;23;20383;-89
2021/09/01 21:39:11;;;;;;;3.97;2.57;;;14.70;99.90;;;;;;6112824;23;20380;-88
2021/09/01 21:42:10;;;;;;;2.67;2.20;;;14.70;99.90;;;;;;6086009;23;20407;-87